createdAt,value
2022-10-17T00:01:10.319Z,100785.22
2022-10-17T00:03:38.981Z,100790.56
2022-10-17T00:06:13.125Z,100789.78
2022-10-17T00:08:42.676Z,100800.31
2022-10-17T00:11:18.209Z,100808.03
2022-10-17T00:13:48.920Z,100804.69
2022-10-17T00:16:24.567Z,100813.47
2022-10-17T00:18:53.107Z,100835.44
2022-10-17T00:21:23.092Z,100851.41
2022-10-17T00:23:51.378Z,100859.28
2022-10-17T00:26:21.555Z,100871.38
2022-10-17T00:28:50.680Z,100878.50
2022-10-17T00:31:22.840Z,100894.25
2022-10-17T00:33:51.928Z,100889.78
2022-10-17T00:36:25.142Z,100891.59
2022-10-17T00:38:58.081Z,100897.81
2022-10-17T00:41:32.091Z,100888.19
2022-10-17T00:44:09.188Z,100879.41
2022-10-17T00:46:39.351Z,100874.06
2022-10-17T00:49:12.677Z,100871.28
2022-10-17T00:51:49.898Z,100875.66
2022-10-17T00:54:21.698Z,100867.66
2022-10-17T00:56:50.853Z,100872.84
2022-10-17T00:59:21.331Z,100869.25
2022-10-17T01:01:59.251Z,100883.94
2022-10-17T01:04:28.187Z,100872.50
2022-10-17T01:06:56.536Z,100882.06
2022-10-17T01:09:25.706Z,100878.59
2022-10-17T01:12:07.577Z,100884.81
2022-10-17T01:14:43.619Z,100889.34
2022-10-17T01:17:33.391Z,100887.56
2022-10-17T01:20:45.870Z,100885.84
2022-10-17T01:23:36.612Z,100887.59
2022-10-17T01:26:16.844Z,100882.31
2022-10-17T01:28:58.310Z,100887.69
2022-10-17T01:31:39.412Z,100888.53
2022-10-17T01:34:19.983Z,100882.41
2022-10-17T01:37:05.363Z,100879.78
2022-10-17T01:39:56.991Z,100883.31
2022-10-17T01:42:36.779Z,100879.00
2022-10-17T01:45:13.132Z,100880.72
2022-10-17T01:47:43.078Z,100885.03
2022-10-17T01:50:19.768Z,100883.28
2022-10-17T01:52:54.069Z,100890.34
2022-10-17T01:55:26.422Z,100890.28
2022-10-17T01:58:01.216Z,100893.00
2022-10-17T02:00:31.685Z,100885.94
2022-10-17T02:03:02.639Z,100892.94
2022-10-17T02:05:36.331Z,100893.81
2022-10-17T02:08:04.699Z,100896.38
2022-10-17T02:10:40.380Z,100893.66
2022-10-17T02:13:21.173Z,100899.91
2022-10-17T02:16:01.051Z,100896.38
2022-10-17T02:18:54.054Z,100903.41
2022-10-17T02:21:34.151Z,100899.78
2022-10-17T02:24:10.923Z,100898.00
2022-10-17T02:26:51.315Z,100896.34
2022-10-17T02:29:28.680Z,100904.16
2022-10-17T02:32:05.185Z,100909.47
2022-10-17T02:34:46.994Z,100905.16
2022-10-17T02:37:19.736Z,100902.59
2022-10-17T02:39:53.553Z,100896.47
2022-10-17T02:42:23.614Z,100898.22
2022-10-17T02:44:55.349Z,100899.84
2022-10-17T02:47:26.872Z,100907.88
2022-10-17T02:49:59.120Z,100900.84
2022-10-17T02:52:52.989Z,100900.00
2022-10-17T02:55:35.925Z,100901.66
2022-10-17T02:58:11.545Z,100908.72
2022-10-17T03:00:40.948Z,100902.47
2022-10-17T03:03:26.849Z,100912.22
2022-10-17T03:05:56.370Z,100907.06
2022-10-17T03:08:27.027Z,100911.50
2022-10-17T03:10:56.577Z,100908.81
2022-10-17T03:13:24.668Z,100919.34
2022-10-17T03:15:52.254Z,100921.00
2022-10-17T03:18:20.770Z,100923.72
2022-10-17T03:20:50.248Z,100931.75
2022-10-17T03:23:17.863Z,100927.31
2022-10-17T03:25:46.175Z,100927.28
2022-10-17T03:28:16.184Z,100937.84
2022-10-17T03:30:43.680Z,100936.06
2022-10-17T03:33:12.479Z,100942.00
2022-10-17T03:35:40.785Z,100943.81
2022-10-17T03:38:09.508Z,100947.28
2022-10-17T03:40:37.570Z,100961.31
2022-10-17T03:43:05.246Z,100962.13
2022-10-17T03:45:33.638Z,100969.22
2022-10-17T03:48:01.780Z,100970.03
2022-10-17T03:50:31.257Z,100977.94
2022-10-17T03:52:59.788Z,100976.28
2022-10-17T03:55:27.252Z,100979.81
2022-10-17T03:57:55.055Z,100976.31
2022-10-17T04:00:23.868Z,100978.88
2022-10-17T04:02:58.685Z,100987.78
2022-10-17T04:05:31.099Z,100980.75
2022-10-17T04:08:03.948Z,100983.41
2022-10-17T04:11:05.238Z,100982.50
2022-10-17T04:13:33.732Z,100980.78
2022-10-17T04:16:04.870Z,100983.41
2022-10-17T04:18:33.408Z,100995.66
2022-10-17T04:21:03.259Z,100997.44
2022-10-17T04:23:31.676Z,101002.75
2022-10-17T04:26:06.331Z,101018.56
2022-10-17T04:28:36.720Z,101022.94
2022-10-17T04:31:07.909Z,101026.44
2022-10-17T04:33:49.346Z,101029.94
2022-10-17T04:36:19.603Z,101020.38
2022-10-17T04:38:47.810Z,101024.75
2022-10-17T04:41:18.886Z,101021.31
2022-10-17T04:43:50.168Z,101024.72
2022-10-17T04:46:20.884Z,101035.31
2022-10-17T04:48:49.723Z,101038.75
2022-10-17T04:51:23.043Z,101041.47
2022-10-17T04:54:30.565Z,101025.63
2022-10-17T04:57:05.607Z,101043.22
2022-10-17T04:59:34.824Z,101050.38
2022-10-17T05:02:23.762Z,101061.72
2022-10-17T05:04:53.299Z,101069.75
2022-10-17T05:07:21.490Z,101068.84
2022-10-17T05:10:10.274Z,101065.41
2022-10-17T05:12:39.760Z,101070.75
2022-10-17T05:15:08.616Z,101074.34
2022-10-17T05:17:38.890Z,101072.50
2022-10-17T05:20:07.043Z,101076.97
2022-10-17T05:22:39.641Z,101080.50
2022-10-17T05:25:12.486Z,101087.50
2022-10-17T05:27:40.252Z,101098.06
2022-10-17T05:30:09.867Z,101092.75
2022-10-17T05:32:38.858Z,101098.94
2022-10-17T05:35:06.976Z,101109.53
2022-10-17T05:37:35.107Z,101112.09
2022-10-17T05:40:07.171Z,101123.44
2022-10-17T05:42:35.013Z,101122.59
2022-10-17T05:45:03.020Z,101126.09
2022-10-17T05:47:31.650Z,101119.16
2022-10-17T05:49:59.631Z,101116.50
2022-10-17T05:52:35.324Z,101127.88
2022-10-17T05:55:10.688Z,101135.81
2022-10-17T05:57:39.509Z,101142.84
2022-10-17T06:00:13.012Z,101136.69
2022-10-17T06:02:52.015Z,101153.41
2022-10-17T06:05:23.589Z,101155.22
2022-10-17T06:07:52.679Z,101162.31
2022-10-17T06:10:22.135Z,101164.94
2022-10-17T06:12:50.136Z,101168.44
2022-10-17T06:15:17.654Z,101175.47
2022-10-17T06:17:50.354Z,101175.50
2022-10-17T06:20:19.003Z,101193.03
2022-10-17T06:22:46.392Z,101207.06
2022-10-17T06:25:24.109Z,101207.97
2022-10-17T06:30:22.171Z,101212.41
2022-10-17T06:32:50.202Z,101218.56
2022-10-17T06:35:17.649Z,101210.66
2022-10-17T06:37:45.230Z,101221.19
2022-10-17T06:40:16.975Z,101223.81
2022-10-17T06:42:45.975Z,101223.75
2022-10-17T06:45:39.523Z,101225.50
2022-10-17T06:48:15.345Z,101234.31
2022-10-17T06:50:47.211Z,101237.84
2022-10-17T06:53:22.953Z,101238.75
2022-10-17T06:56:10.892Z,101246.59
2022-10-17T06:58:49.464Z,101256.25
2022-10-17T07:01:46.973Z,101251.84
2022-10-17T07:04:17.867Z,101255.38
2022-10-17T07:06:45.531Z,101250.09
2022-10-17T07:09:23.029Z,101245.72
2022-10-17T07:11:51.920Z,101252.69
2022-10-17T07:14:20.327Z,101263.25
2022-10-17T07:16:49.272Z,101267.66
2022-10-17T07:19:20.054Z,101270.25
2022-10-17T07:21:47.771Z,101290.44
2022-10-17T07:24:16.983Z,101295.66
2022-10-17T07:26:49.929Z,101300.91
2022-10-17T07:29:18.749Z,101312.25
2022-10-17T07:32:09.322Z,101320.16
2022-10-17T07:34:37.303Z,101328.94
2022-10-17T07:37:07.479Z,101331.63
2022-10-17T07:39:36.168Z,101343.88
2022-10-17T07:42:05.209Z,101349.19
2022-10-17T07:44:35.651Z,101350.03
2022-10-17T07:47:03.229Z,101368.44
2022-10-17T07:49:32.098Z,101358.75
2022-10-17T07:51:59.480Z,101365.72
2022-10-17T07:54:28.934Z,101383.22
2022-10-17T07:56:56.297Z,101390.19
2022-10-17T07:59:24.527Z,101383.84
2022-10-17T08:01:56.013Z,101385.59
2022-10-17T08:04:23.983Z,101387.25
2022-10-17T08:06:56.372Z,101385.47
2022-10-17T08:09:28.222Z,101378.44
2022-10-17T08:11:55.515Z,101393.41
2022-10-17T08:14:23.697Z,101387.19
2022-10-17T08:16:51.074Z,101394.22
2022-10-17T08:19:19.505Z,101396.81
2022-10-17T08:21:47.020Z,101389.75
2022-10-17T08:24:15.448Z,101388.75
2022-10-17T08:26:44.004Z,101399.22
2022-10-17T08:29:15.045Z,101408.88
2022-10-17T08:31:47.432Z,101418.53
2022-10-17T08:34:17.407Z,101429.94
2022-10-17T08:36:45.323Z,101443.13
2022-10-17T08:39:12.688Z,101450.19
2022-10-17T08:41:54.611Z,101456.34
2022-10-17T08:44:47.332Z,101465.19
2022-10-17T08:47:23.514Z,101481.09
2022-10-17T08:50:02.183Z,101480.22
2022-10-17T08:52:41.656Z,101489.97
2022-10-17T08:55:20.918Z,101487.41
2022-10-17T08:57:51.537Z,101479.50
2022-10-17T09:00:22.062Z,101476.88
2022-10-17T09:03:20.602Z,101483.97
2022-10-17T09:06:02.404Z,101479.56
2022-10-17T09:08:39.213Z,101475.06
2022-10-17T09:11:26.291Z,101477.59
2022-10-17T09:14:32.601Z,101479.22
2022-10-17T09:17:14.402Z,101478.31
2022-10-17T09:19:49.273Z,101489.69
2022-10-17T09:22:21.900Z,101497.50
2022-10-17T09:24:59.376Z,101500.09
2022-10-17T09:27:41.130Z,101482.31
2022-10-17T09:30:44.758Z,101485.63
2022-10-17T09:33:34.642Z,101488.97
2022-10-17T09:36:17.872Z,101488.78
2022-10-17T09:38:53.254Z,101493.16
2022-10-17T09:41:46.365Z,101492.19
2022-10-17T09:44:29.493Z,101495.66
2022-10-17T09:46:57.392Z,101507.00
2022-10-17T09:49:40.146Z,101507.06
2022-10-17T09:52:20.018Z,101511.66
2022-10-17T09:54:56.638Z,101509.91
2022-10-17T09:57:26.851Z,101524.09
2022-10-17T10:00:03.499Z,101525.88
2022-10-17T10:02:41.371Z,101529.53
2022-10-17T10:05:18.934Z,101524.25
2022-10-17T10:08:14.870Z,101533.19
2022-10-17T10:10:43.507Z,101538.63
2022-10-17T10:13:13.956Z,101541.22
2022-10-17T10:15:49.952Z,101540.34
2022-10-17T10:18:26.605Z,101546.47
2022-10-17T10:21:10.095Z,101545.50
2022-10-17T10:23:40.504Z,101550.75
2022-10-17T10:26:31.353Z,101546.34
2022-10-17T10:29:22.371Z,101554.22
2022-10-17T10:31:53.218Z,101553.22
2022-10-17T10:34:28.974Z,101545.03
2022-10-17T10:37:02.663Z,101547.34
2022-10-17T10:39:49.808Z,101554.06
2022-10-17T10:42:30.975Z,101554.63
2022-10-17T10:45:48.934Z,101557.97
2022-10-17T10:48:22.699Z,101556.19
2022-10-17T10:51:16.459Z,101560.47
2022-10-17T10:53:49.343Z,101571.03
2022-10-17T10:56:51.112Z,101573.69
2022-10-17T10:59:56.361Z,101571.16
2022-10-17T11:03:08.432Z,101576.41
2022-10-17T11:05:54.349Z,101572.19
2022-10-17T11:08:49.856Z,101574.91
2022-10-17T11:11:44.654Z,101572.19
2022-10-17T11:14:35.031Z,101570.44
2022-10-17T11:17:12.634Z,101579.22
2022-10-17T11:19:56.497Z,101582.69
2022-10-17T11:22:31.234Z,101583.63
2022-10-17T11:25:13.012Z,101584.56
2022-10-17T11:27:40.940Z,101581.84
2022-10-17T11:30:14.042Z,101579.22
2022-10-17T11:32:56.923Z,101587.91
2022-10-17T11:35:53.876Z,101594.75
2022-10-17T11:38:43.776Z,101587.38
2022-10-17T11:41:18.012Z,101583.56
2022-10-17T11:44:00.948Z,101578.81
2022-10-17T11:46:29.601Z,101583.09
2022-10-17T11:49:19.895Z,101585.72
2022-10-17T11:52:18.300Z,101591.06
2022-10-17T11:55:03.825Z,101577.16
2022-10-17T11:57:32.859Z,101586.00
2022-10-17T12:00:28.847Z,101593.09
2022-10-17T12:03:28.054Z,101590.50
2022-10-17T12:06:14.900Z,101594.88
2022-10-17T12:08:47.751Z,101589.56
2022-10-17T12:11:35.172Z,101596.59
2022-10-17T12:14:05.802Z,101601.91
2022-10-17T12:19:26.524Z,101589.56
2022-10-17T12:22:20.526Z,101595.78
2022-10-17T12:24:57.437Z,101595.00
2022-10-17T12:27:43.741Z,101587.97
2022-10-17T12:30:28.470Z,101583.63
2022-10-17T12:33:31.470Z,101591.47
2022-10-17T12:36:17.883Z,101591.53
2022-10-17T12:38:50.164Z,101592.34
2022-10-17T12:41:40.876Z,101593.94
2022-10-17T12:44:12.779Z,101597.34
2022-10-17T12:47:01.495Z,101596.41
2022-10-17T12:49:50.386Z,101590.91
2022-10-17T12:52:36.729Z,101591.63
2022-10-17T12:55:34.143Z,101593.22
2022-10-17T12:58:05.148Z,101591.44
2022-10-17T13:00:43.774Z,101583.34
2022-10-17T13:03:29.250Z,101591.16
2022-10-17T13:06:06.857Z,101587.59
2022-10-17T13:08:39.258Z,101581.47
2022-10-17T13:11:09.218Z,101579.81
2022-10-17T13:13:49.376Z,101587.94
2022-10-17T13:16:40.103Z,101587.19
2022-10-17T13:19:16.034Z,101588.28
2022-10-17T13:21:56.302Z,101590.28
2022-10-17T13:24:30.691Z,101586.22
2022-10-17T13:26:59.224Z,101598.66
2022-10-17T13:29:28.778Z,101596.13
2022-10-17T13:32:03.841Z,101594.44
2022-10-17T13:34:33.559Z,101597.22
2022-10-17T13:37:06.192Z,101605.97
2022-10-17T13:39:52.830Z,101606.06
2022-10-17T13:42:30.138Z,101600.06
2022-10-17T13:44:59.657Z,101594.81
2022-10-17T13:47:35.611Z,101596.59
2022-10-17T13:50:12.798Z,101602.81
2022-10-17T13:52:50.086Z,101599.16
2022-10-17T13:55:20.276Z,101604.41
2022-10-17T13:57:48.635Z,101606.19
2022-10-17T14:00:21.477Z,101600.13
2022-10-17T14:02:53.458Z,101600.22
2022-10-17T14:05:24.436Z,101605.56
2022-10-17T14:08:12.377Z,101606.44
2022-10-17T14:10:42.563Z,101610.91
2022-10-17T14:13:24.822Z,101616.31
2022-10-17T14:15:55.960Z,101616.38
2022-10-17T14:18:44.545Z,101615.53
2022-10-17T14:24:23.332Z,101618.22
2022-10-17T14:26:58.992Z,101628.81
2022-10-17T14:29:32.166Z,101623.53
2022-10-17T14:32:11.045Z,101614.72
2022-10-17T14:34:40.940Z,101622.63
2022-10-17T14:37:21.064Z,101629.56
2022-10-17T14:39:52.044Z,101615.44
2022-10-17T14:42:23.091Z,101619.00
2022-10-17T14:44:52.618Z,101619.09
2022-10-17T14:47:43.923Z,101621.72
2022-10-17T14:50:11.870Z,101614.72
2022-10-17T14:52:41.468Z,101608.59
2022-10-17T14:55:27.827Z,101616.56
2022-10-17T14:57:56.302Z,101608.66
2022-10-17T15:00:26.200Z,101612.25
2022-10-17T15:02:55.630Z,101616.75
2022-10-17T15:05:26.073Z,101615.00
2022-10-17T15:07:53.936Z,101614.09
2022-10-17T15:10:35.877Z,101615.94
2022-10-17T15:13:27.088Z,101617.78
2022-10-17T15:15:55.590Z,101627.50
2022-10-17T15:18:23.072Z,101628.41
2022-10-17T15:20:59.559Z,101628.41
2022-10-17T15:23:35.406Z,101623.22
2022-10-17T15:26:02.991Z,101627.63
2022-10-17T15:28:31.594Z,101616.16
2022-10-17T15:31:00.573Z,101605.56
2022-10-17T15:33:28.041Z,101602.06
2022-10-17T15:35:55.598Z,101609.88
2022-10-17T15:38:23.627Z,101622.47
2022-10-17T15:40:52.081Z,101613.78
2022-10-17T15:43:19.863Z,101619.16
2022-10-17T15:45:48.073Z,101621.00
2022-10-17T15:48:28.692Z,101625.44
2022-10-17T15:50:57.433Z,101621.00
2022-10-17T15:53:24.987Z,101629.84
2022-10-17T15:55:52.860Z,101618.41
2022-10-17T15:58:21.700Z,101627.19
2022-10-17T16:00:49.998Z,101631.59
2022-10-17T16:03:17.401Z,101636.00
2022-10-17T16:05:46.004Z,101632.47
2022-10-17T16:08:14.570Z,101634.28
2022-10-17T16:10:42.464Z,101643.06
2022-10-17T16:13:18.744Z,101636.00
2022-10-17T16:15:47.776Z,101642.22
2022-10-17T16:18:15.651Z,101639.53
2022-10-17T16:20:44.228Z,101642.16
2022-10-17T16:23:13.589Z,101644.84
2022-10-17T16:25:42.195Z,101640.44
2022-10-17T16:28:10.812Z,101646.63
2022-10-17T16:30:43.078Z,101645.72
2022-10-17T16:33:11.581Z,101651.88
2022-10-17T16:35:39.346Z,101653.72
2022-10-17T16:38:08.504Z,101656.44
2022-10-17T16:40:39.372Z,101654.72
2022-10-17T16:43:08.068Z,101654.78
2022-10-17T16:45:36.649Z,101641.53
2022-10-17T16:48:07.103Z,101646.75
2022-10-17T16:50:35.772Z,101655.66
2022-10-17T16:53:04.107Z,101654.78
2022-10-17T16:55:31.507Z,101655.72
2022-10-17T16:58:01.552Z,101650.50
2022-10-17T17:00:28.994Z,101646.09
2022-10-17T17:02:58.904Z,101649.66
2022-10-17T17:05:26.421Z,101655.81
2022-10-17T17:07:55.758Z,101646.94
2022-10-17T17:10:25.886Z,101648.75
2022-10-17T17:12:53.259Z,101659.31
2022-10-17T17:15:20.603Z,101652.31
2022-10-17T17:17:52.414Z,101660.28
2022-10-17T17:20:23.088Z,101667.38
2022-10-17T17:22:52.451Z,101676.22
2022-10-17T17:25:22.950Z,101677.16
2022-10-17T17:27:50.480Z,101671.91
2022-10-17T17:30:18.045Z,101677.19
2022-10-17T17:32:45.434Z,101686.88
2022-10-17T17:35:14.520Z,101693.94
2022-10-17T17:37:43.318Z,101690.41
2022-10-17T17:40:11.495Z,101681.59
2022-10-17T17:42:38.911Z,101685.09
2022-10-17T17:45:08.575Z,101688.66
2022-10-17T17:47:36.920Z,101697.47
2022-10-17T17:50:04.654Z,101701.88
2022-10-17T17:52:32.138Z,101703.66
2022-10-17T17:54:59.679Z,101708.06
2022-10-17T17:57:29.492Z,101716.88
2022-10-17T17:59:56.869Z,101721.28
2022-10-17T18:02:25.754Z,101726.59
2022-10-17T18:04:54.054Z,101723.88
2022-10-17T18:07:21.619Z,101722.00
2022-10-17T18:09:51.007Z,101722.91
2022-10-17T18:12:18.572Z,101737.09
2022-10-17T18:14:47.577Z,101735.34
2022-10-17T18:17:15.483Z,101728.31
2022-10-17T18:19:42.890Z,101747.72
2022-10-17T18:22:11.167Z,101750.38
2022-10-17T18:24:38.613Z,101750.38
2022-10-17T18:27:06.012Z,101756.56
2022-10-17T18:29:35.270Z,101758.34
2022-10-17T18:32:02.630Z,101768.00
2022-10-17T18:34:32.421Z,101776.84
2022-10-17T18:37:00.220Z,101776.84
2022-10-17T18:39:28.078Z,101779.44
2022-10-17T18:41:55.613Z,101778.56
2022-10-17T18:44:24.796Z,101777.69
2022-10-17T18:46:58.581Z,101787.38
2022-10-17T18:49:29.726Z,101787.41
2022-10-17T18:51:57.131Z,101793.53
2022-10-17T18:54:25.827Z,101786.50
2022-10-17T18:56:54.765Z,101790.88
2022-10-17T18:59:22.675Z,101796.19
2022-10-17T19:01:50.423Z,101804.09
2022-10-17T19:04:18.602Z,101791.75
2022-10-17T19:06:46.057Z,101787.38
2022-10-17T19:09:15.141Z,101778.59
2022-10-17T19:11:43.302Z,101774.16
2022-10-17T19:14:13.532Z,101778.56
2022-10-17T19:16:45.982Z,101777.63
2022-10-17T19:19:17.402Z,101779.41
2022-10-17T19:21:45.758Z,101785.56
2022-10-17T19:24:16.144Z,101786.41
2022-10-17T19:26:47.734Z,101781.13
2022-10-17T19:29:18.507Z,101774.97
2022-10-17T19:31:46.950Z,101778.47
2022-10-17T19:34:17.899Z,101771.50
2022-10-17T19:36:46.951Z,101772.38
2022-10-17T19:39:19.258Z,101781.13
2022-10-17T19:41:48.531Z,101776.66
2022-10-17T19:44:16.587Z,101782.88
2022-10-17T19:46:49.099Z,101780.25
2022-10-17T19:49:17.993Z,101782.94
2022-10-17T19:51:45.878Z,101790.91
2022-10-17T19:54:16.551Z,101794.41
2022-10-17T19:56:45.632Z,101790.91
2022-10-17T19:59:15.424Z,101779.44
2022-10-17T20:01:43.307Z,101775.03
2022-10-17T20:04:13.119Z,101779.44
2022-10-17T20:06:41.384Z,101785.59
2022-10-17T20:09:12.374Z,101789.13
2022-10-17T20:11:43.286Z,101797.97
2022-10-17T20:14:10.686Z,101800.56
2022-10-17T20:16:38.350Z,101801.47
2022-10-17T20:19:09.997Z,101806.75
2022-10-17T20:21:39.875Z,101803.25
2022-10-17T20:24:09.917Z,101805.00
2022-10-17T20:26:39.362Z,101807.59
2022-10-17T20:29:14.705Z,101797.94
2022-10-17T20:31:45.345Z,101804.09
2022-10-17T20:34:14.799Z,101809.41
2022-10-17T20:36:42.827Z,101812.09
2022-10-17T20:39:17.268Z,101820.03
2022-10-17T20:41:46.454Z,101824.44
2022-10-17T20:44:15.290Z,101817.38
2022-10-17T20:46:52.989Z,101805.91
2022-10-17T20:49:29.847Z,101812.09
2022-10-17T20:51:58.707Z,101821.78
2022-10-17T20:54:27.830Z,101829.72
2022-10-17T20:56:55.512Z,101833.28
2022-10-17T20:59:24.823Z,101835.91
2022-10-17T21:01:54.429Z,101839.41
2022-10-17T21:04:44.645Z,101838.53
2022-10-17T21:07:11.779Z,101846.47
2022-10-17T21:09:41.195Z,101844.69
2022-10-17T21:12:09.616Z,101855.25
2022-10-17T21:14:37.463Z,101857.91
2022-10-17T21:17:05.740Z,101858.78
2022-10-17T21:19:33.445Z,101860.53
2022-10-17T21:22:01.705Z,101871.09
2022-10-17T21:24:30.195Z,101868.47
2022-10-17T21:26:59.960Z,101870.22
2022-10-17T21:29:27.628Z,101875.53
2022-10-17T21:31:55.505Z,101872.00
2022-10-17T21:34:26.603Z,101878.16
2022-10-17T21:36:56.077Z,101886.97
2022-10-17T21:39:25.196Z,101892.22
2022-10-17T21:41:53.716Z,101893.13
2022-10-17T21:44:26.132Z,101898.41
2022-10-17T21:46:55.770Z,101890.44
2022-10-17T21:49:25.308Z,101882.53
2022-10-17T21:51:53.739Z,101887.81
2022-10-17T21:54:25.088Z,101886.06
2022-10-17T21:56:53.655Z,101885.19
2022-10-17T21:59:21.036Z,101887.81
2022-10-17T22:01:48.707Z,101886.94
2022-10-17T22:04:19.252Z,101891.34
2022-10-17T22:06:51.117Z,101882.53
2022-10-17T22:09:24.021Z,101888.69
2022-10-17T22:11:55.823Z,101881.66
2022-10-17T22:14:25.446Z,101888.72
2022-10-17T22:16:54.213Z,101890.47
2022-10-17T22:19:25.331Z,101887.84
2022-10-17T22:21:54.132Z,101885.19
2022-10-17T22:24:22.870Z,101881.66
2022-10-17T22:26:54.220Z,101887.81
2022-10-17T22:29:21.621Z,101884.31
2022-10-17T22:31:49.271Z,101879.91
2022-10-17T22:34:19.185Z,101882.53
2022-10-17T22:36:50.475Z,101876.38
2022-10-17T22:39:18.133Z,101882.53
2022-10-17T22:41:45.571Z,101884.28
2022-10-17T22:44:13.016Z,101879.03
2022-10-17T22:46:40.965Z,101881.66
2022-10-17T22:49:09.204Z,101886.06
2022-10-17T22:51:36.878Z,101892.22
2022-10-17T22:54:04.383Z,101889.59
2022-10-17T22:56:32.443Z,101885.16
2022-10-17T22:59:01.451Z,101886.06
2022-10-17T23:01:29.880Z,101884.28
2022-10-17T23:03:57.340Z,101878.13
2022-10-17T23:06:24.808Z,101876.38
2022-10-17T23:08:52.460Z,101882.53
2022-10-17T23:11:21.040Z,101881.69
2022-10-17T23:13:50.140Z,101878.16
2022-10-17T23:16:19.216Z,101883.41
2022-10-17T23:18:47.433Z,101886.94
2022-10-17T23:21:14.919Z,101881.66
2022-10-17T23:23:42.324Z,101886.06
2022-10-17T23:26:12.427Z,101898.38
2022-10-17T23:28:41.893Z,101889.56
2022-10-17T23:31:21.146Z,101893.97
2022-10-17T23:33:50.091Z,101888.69
2022-10-17T23:36:19.927Z,101893.97
2022-10-17T23:38:51.734Z,101891.34
2022-10-17T23:41:24.762Z,101883.44
2022-10-17T23:43:52.540Z,101884.31
2022-10-17T23:46:20.692Z,101886.06
2022-10-17T23:48:48.058Z,101895.75
2022-10-17T23:51:15.643Z,101892.22
2022-10-17T23:53:43.880Z,101894.00
2022-10-17T23:56:12.015Z,101894.00
2022-10-17T23:58:40.168Z,101892.22
